Decoded Metar for KMCX ( in ) (IATA:) | Meteo·Mobile Aviation Weather
aviador You're here:

KMCX Decoded Metar

in
Report Time2019-07-16 22:35:00
UTC Time2019-07-16 22:46:20
Flight Rules vfr VFR
Wind170° at 04 kt
W.Decomp.*RWY 18: 3.9 kt HW 0.7 kt LCW
Visibility9999 m
Phenomena:Light Rain
Clouds:N/A
Expected CloudBase > 400 ft AGL from Temp-Dew spread
CeilingNone
Temp24°C
Dew Point23°C (94% RH)
QNH1012 hPa
Raw Report
KMCX 162235Z AUTO 17004KT 10SM -RA CLR 24/23 A2988 RMK AO2
T02410230=

Extra information for KMCX:More info

Social comments